createdAt,value
2019-04-23T00:02:39.499Z,13.40
2019-04-23T00:05:08.096Z,13.40
2019-04-23T00:07:51.926Z,13.40
2019-04-23T00:15:17.418Z,13.40
2019-04-23T00:17:42.549Z,13.40
2019-04-23T00:22:43.809Z,13.40
2019-04-23T00:25:47.168Z,13.40
2019-04-23T00:27:59.552Z,13.40
2019-04-23T00:30:36.674Z,13.50
2019-04-23T00:32:55.482Z,13.40
2019-04-23T00:35:31.154Z,13.40
2019-04-23T00:38:06.596Z,13.40
2019-04-23T00:40:32.079Z,13.40
2019-04-23T00:43:02.062Z,13.40
2019-04-23T00:48:03.467Z,13.30
2019-04-23T00:50:38.513Z,13.30
2019-04-23T00:53:04.462Z,13.20
2019-04-23T00:55:39.756Z,13.20
2019-04-23T01:03:12.542Z,13.10
2019-04-23T01:05:35.267Z,13.10
2019-04-23T01:08:13.258Z,13.00
2019-04-23T01:10:45.940Z,13.00
2019-04-23T01:13:14.610Z,12.90
2019-04-23T01:15:49.525Z,12.90
2019-04-23T01:18:28.256Z,12.90
2019-04-23T01:20:52.960Z,12.90
2019-04-23T01:23:07.430Z,12.80
2019-04-23T01:25:52.251Z,12.70
2019-04-23T01:28:46.237Z,12.70
2019-04-23T01:31:08.912Z,12.60
2019-04-23T01:33:47.044Z,12.60
2019-04-23T01:38:39.204Z,12.60
2019-04-23T01:41:08.547Z,12.50
2019-04-23T01:43:42.904Z,12.40
2019-04-23T01:46:09.028Z,12.30
2019-04-23T01:48:40.548Z,12.20
2019-04-23T01:51:02.333Z,12.30
2019-04-23T01:53:42.049Z,12.20
2019-04-23T01:56:12.540Z,12.20
2019-04-23T02:01:11.790Z,12.20
2019-04-23T02:03:49.400Z,12.10
2019-04-23T02:06:13.602Z,12.10
2019-04-23T02:08:47.079Z,12.10
2019-04-23T02:11:11.509Z,12.20
2019-04-23T02:13:51.616Z,12.20
2019-04-23T02:16:19.260Z,12.20
2019-04-23T02:18:47.784Z,12.20
2019-04-23T02:21:15.370Z,12.20
2019-04-23T02:23:50.762Z,12.10
2019-04-23T02:26:20.119Z,12.10
2019-04-23T02:34:25.351Z,12.10
2019-04-23T02:36:40.558Z,12.10
2019-04-23T02:44:21.841Z,12.10
2019-04-23T02:46:43.509Z,12.10
2019-04-23T02:56:49.315Z,12.10
2019-04-23T03:02:07.707Z,12.20
2019-04-23T03:04:17.362Z,12.20
2019-04-23T03:06:56.085Z,12.20
2019-04-23T03:09:28.130Z,12.20
2019-04-23T03:11:51.993Z,12.20
2019-04-23T03:14:16.988Z,12.20
2019-04-23T03:16:53.184Z,12.20
2019-04-23T03:19:15.295Z,12.20
2019-04-23T03:21:56.179Z,12.20
2019-04-23T03:24:36.627Z,12.20
2019-04-23T03:27:23.235Z,12.20
2019-04-23T03:42:11.673Z,12.20
2019-04-23T03:47:10.791Z,12.40
2019-04-23T03:59:52.046Z,12.40
2019-04-23T04:04:49.809Z,12.40
2019-04-23T04:07:22.099Z,12.40
2019-04-23T04:12:21.800Z,12.40
2019-04-23T04:17:15.904Z,12.40
2019-04-23T04:19:47.701Z,12.40
2019-04-23T04:24:52.716Z,12.40
2019-04-23T04:32:12.485Z,12.40
2019-04-23T04:47:28.544Z,12.10
2019-04-23T04:49:56.207Z,12.10
2019-04-23T04:52:33.573Z,12.10
2019-04-23T04:54:39.675Z,12.20
2019-04-23T04:57:35.377Z,12.20
2019-04-23T05:02:39.138Z,12.20
2019-04-23T05:05:31.386Z,12.20
2019-04-23T05:07:28.303Z,12.30
2019-04-23T05:17:32.514Z,12.30
2019-04-23T05:19:58.931Z,12.30
2019-04-23T05:22:31.177Z,12.30
2019-04-23T05:24:51.286Z,12.40
2019-04-23T05:27:28.947Z,12.50
2019-04-23T05:30:02.930Z,12.50
2019-04-23T05:32:28.761Z,12.60
2019-04-23T05:35:20.319Z,12.60
2019-04-23T05:37:59.309Z,12.70
2019-04-23T05:40:30.480Z,12.70
2019-04-23T05:42:47.254Z,12.80
2019-04-23T05:45:16.963Z,12.90
2019-04-23T05:47:53.426Z,12.80
2019-04-23T05:50:31.369Z,12.90
2019-04-23T05:52:52.805Z,12.90
2019-04-23T05:55:18.807Z,13.00
2019-04-23T05:57:52.102Z,13.00
2019-04-23T06:00:23.749Z,13.10
2019-04-23T06:03:02.607Z,13.20
2019-04-23T06:05:24.723Z,13.20
2019-04-23T06:07:54.648Z,13.20
2019-04-23T06:10:29.033Z,13.30
2019-04-23T06:15:26.783Z,13.40
2019-04-23T06:18:01.946Z,13.40
2019-04-23T06:20:28.451Z,13.50
2019-04-23T06:22:58.597Z,13.50
2019-04-23T06:25:40.008Z,13.60
2019-04-23T06:28:03.481Z,13.70
2019-04-23T06:30:34.357Z,13.80
2019-04-23T06:33:02.236Z,13.80
2019-04-23T06:35:34.044Z,13.90
2019-04-23T06:38:34.410Z,14.00
2019-04-23T06:43:18.090Z,14.20
2019-04-23T06:45:43.460Z,14.30
2019-04-23T06:48:23.678Z,14.30
2019-04-23T06:53:14.569Z,14.40
2019-04-23T06:58:26.276Z,14.50
2019-04-23T07:00:59.100Z,14.60
2019-04-23T07:09:03.033Z,14.80
2019-04-23T07:11:18.810Z,14.80
2019-04-23T07:13:54.744Z,14.90
2019-04-23T07:16:09.472Z,14.90
2019-04-23T07:18:43.470Z,15.00
2019-04-23T07:21:16.916Z,15.10
2019-04-23T07:23:44.952Z,15.10
2019-04-23T07:26:27.391Z,15.20
2019-04-23T07:28:49.741Z,15.20
2019-04-23T07:31:20.631Z,15.30
2019-04-23T07:33:54.742Z,15.30
2019-04-23T07:36:17.145Z,15.40
2019-04-23T07:38:54.666Z,15.50
2019-04-23T07:41:46.450Z,15.60
2019-04-23T07:44:25.005Z,15.70
2019-04-23T07:47:13.809Z,15.70
2019-04-23T07:49:31.836Z,15.70
2019-04-23T07:52:03.018Z,15.80
2019-04-23T07:54:32.209Z,15.80
2019-04-23T07:59:41.256Z,15.80
2019-04-23T08:02:07.370Z,15.90
2019-04-23T08:04:35.699Z,15.90
2019-04-23T08:07:03.142Z,16.00
2019-04-23T08:09:35.904Z,16.10
2019-04-23T08:12:07.900Z,16.20
2019-04-23T08:14:32.955Z,16.20
2019-04-23T08:17:05.468Z,16.30
2019-04-23T08:19:41.055Z,16.30
2019-04-23T08:22:12.511Z,16.30
2019-04-23T08:24:46.123Z,16.40
2019-04-23T08:27:22.762Z,16.50
2019-04-23T08:29:41.450Z,16.50
2019-04-23T08:32:13.979Z,16.40
2019-04-23T08:37:24.623Z,16.50
2019-04-23T08:39:45.461Z,16.50
2019-04-23T08:42:32.601Z,16.60
2019-04-23T08:44:56.927Z,16.60
2019-04-23T08:47:36.527Z,16.60
2019-04-23T08:50:04.308Z,16.70
2019-04-23T08:52:39.873Z,16.70
2019-04-23T08:55:08.668Z,16.80
2019-04-23T09:00:10.782Z,16.90
2019-04-23T09:05:15.822Z,16.90
2019-04-23T09:08:00.077Z,16.90
2019-04-23T09:10:14.628Z,17.00
2019-04-23T09:12:43.624Z,17.20
2019-04-23T09:15:15.374Z,17.20
2019-04-23T09:17:47.588Z,17.30
2019-04-23T09:22:38.614Z,17.50
2019-04-23T09:25:22.812Z,17.50
2019-04-23T09:27:39.988Z,17.70
2019-04-23T09:30:12.595Z,17.70
2019-04-23T09:32:47.819Z,17.80
2019-04-23T09:35:26.038Z,17.90
2019-04-23T09:38:14.353Z,17.80
2019-04-23T09:43:27.060Z,17.80
2019-04-23T09:46:22.474Z,17.80
2019-04-23T09:48:50.958Z,17.90
2019-04-23T09:51:17.691Z,17.80
2019-04-23T09:53:41.118Z,17.80
2019-04-23T09:56:14.462Z,17.80
2019-04-23T09:58:41.753Z,17.90
2019-04-23T10:01:30.688Z,17.90
2019-04-23T10:03:40.636Z,18.00
2019-04-23T10:06:09.715Z,17.90
2019-04-23T10:08:36.315Z,17.90
2019-04-23T10:11:02.937Z,17.90
2019-04-23T10:13:31.812Z,17.80
2019-04-23T10:16:02.183Z,17.70
2019-04-23T10:18:31.326Z,17.90
2019-04-23T10:21:01.388Z,17.80
2019-04-23T10:23:31.554Z,17.80
2019-04-23T10:26:01.744Z,17.80
2019-04-23T10:28:33.723Z,17.90
2019-04-23T10:31:02.864Z,17.90
2019-04-23T10:33:31.920Z,18.00
2019-04-23T10:36:04.838Z,18.10
2019-04-23T10:38:32.750Z,18.20
2019-04-23T10:41:02.262Z,18.20
2019-04-23T10:43:34.005Z,18.30
2019-04-23T10:46:29.679Z,18.30
2019-04-23T10:52:04.951Z,18.40
2019-04-23T10:56:44.910Z,18.60
2019-04-23T10:59:35.425Z,18.70
2019-04-23T11:07:26.269Z,18.90
2019-04-23T11:12:32.899Z,19.00
2019-04-23T11:14:58.388Z,19.00
2019-04-23T11:17:36.440Z,19.10
2019-04-23T11:19:56.728Z,19.10
2019-04-23T11:22:42.605Z,19.20
2019-04-23T11:27:32.951Z,19.20
2019-04-23T11:30:00.510Z,19.20
2019-04-23T11:35:13.974Z,19.30
2019-04-23T11:37:54.673Z,19.30
2019-04-23T11:40:04.052Z,19.40
2019-04-23T11:42:32.810Z,19.50
2019-04-23T11:45:10.069Z,19.50
2019-04-23T11:50:13.967Z,19.60
2019-04-23T11:52:36.514Z,19.60
2019-04-23T11:55:22.798Z,19.50
2019-04-23T12:00:05.577Z,19.50
2019-04-23T12:02:51.211Z,19.50
2019-04-23T12:05:35.889Z,19.60
2019-04-23T12:08:11.660Z,19.60
2019-04-23T12:10:54.339Z,19.50
2019-04-23T12:13:15.823Z,19.60
2019-04-23T12:15:37.546Z,19.50
2019-04-23T12:18:10.006Z,19.50
2019-04-23T12:20:35.820Z,19.40
2019-04-23T12:23:25.452Z,19.40
2019-04-23T12:25:49.875Z,19.30
2019-04-23T12:28:13.470Z,19.30
2019-04-23T12:30:48.694Z,19.30
2019-04-23T12:33:26.758Z,19.30
2019-04-23T12:35:40.800Z,19.20
2019-04-23T12:40:45.687Z,19.20
2019-04-23T12:45:57.621Z,19.10
2019-04-23T12:50:56.950Z,19.20
2019-04-23T12:53:30.437Z,19.30
2019-04-23T12:58:24.831Z,19.30
2019-04-23T13:00:48.796Z,19.40
2019-04-23T13:03:25.657Z,19.40
2019-04-23T13:05:42.254Z,19.50
2019-04-23T13:08:34.019Z,19.60
2019-04-23T13:10:57.286Z,19.50
2019-04-23T13:15:53.609Z,19.50
2019-04-23T13:20:51.105Z,19.70
2019-04-23T13:23:30.985Z,19.60
2019-04-23T13:25:57.026Z,19.70
2019-04-23T13:28:33.944Z,19.80
2019-04-23T13:31:08.657Z,19.70
2019-04-23T13:33:40.989Z,19.70
2019-04-23T13:38:38.407Z,19.70
2019-04-23T13:41:08.507Z,19.60
2019-04-23T13:46:17.081Z,19.60
2019-04-23T13:48:30.145Z,19.60
2019-04-23T13:56:09.201Z,19.60
2019-04-23T14:06:27.578Z,19.60
2019-04-23T14:08:53.664Z,19.70
2019-04-23T14:11:19.468Z,19.60
2019-04-23T14:13:49.535Z,19.60
2019-04-23T14:16:21.257Z,19.70
2019-04-23T14:21:20.411Z,19.70
2019-04-23T14:24:08.947Z,19.70
2019-04-23T14:33:56.357Z,19.90
2019-04-23T14:36:19.033Z,20.00
2019-04-23T14:38:49.748Z,20.00
2019-04-23T14:43:58.068Z,20.10
2019-04-23T14:46:35.318Z,20.10
2019-04-23T14:49:13.209Z,20.00
2019-04-23T14:51:30.906Z,19.90
2019-04-23T14:53:48.400Z,19.90
2019-04-23T14:56:35.045Z,19.80
2019-04-23T15:03:49.115Z,19.80
2019-04-23T15:06:29.519Z,19.70
2019-04-23T15:09:06.276Z,19.70
2019-04-23T15:13:53.922Z,19.60
2019-04-23T15:24:13.978Z,19.40
2019-04-23T15:28:50.987Z,19.20
2019-04-23T15:31:52.024Z,19.20
2019-04-23T15:36:58.142Z,19.10
2019-04-23T15:39:19.543Z,19.10
2019-04-23T15:41:53.887Z,19.00
2019-04-23T15:49:21.262Z,18.90
2019-04-23T15:54:17.825Z,18.80
2019-04-23T15:59:29.324Z,18.80
2019-04-23T16:01:44.326Z,18.70
2019-04-23T16:03:49.651Z,18.70
2019-04-23T16:06:22.965Z,18.60
2019-04-23T16:09:09.722Z,18.70
2019-04-23T16:14:26.164Z,18.50
2019-04-23T16:19:00.585Z,18.40
2019-04-23T16:21:42.181Z,18.40
2019-04-23T16:24:03.141Z,18.30
2019-04-23T16:26:29.850Z,18.30
2019-04-23T16:29:23.398Z,18.30
2019-04-23T16:31:39.832Z,18.20
2019-04-23T16:34:12.150Z,18.20
2019-04-23T16:36:32.541Z,18.20
2019-04-23T16:41:34.572Z,18.10
2019-04-23T16:44:09.111Z,18.10
2019-04-23T16:46:35.077Z,18.10
2019-04-23T16:54:10.105Z,18.00
2019-04-23T16:59:19.385Z,17.90
2019-04-23T17:01:35.415Z,17.90
2019-04-23T17:06:36.597Z,17.90
2019-04-23T17:09:15.732Z,17.90
2019-04-23T17:11:41.741Z,17.80
2019-04-23T17:14:13.363Z,17.70
2019-04-23T17:16:38.082Z,17.70
2019-04-23T17:21:51.257Z,17.70
2019-04-23T17:24:20.878Z,17.60
2019-04-23T17:27:03.945Z,17.60
2019-04-23T17:29:20.378Z,17.60
2019-04-23T17:31:40.564Z,17.60
2019-04-23T17:34:24.425Z,17.60
2019-04-23T17:37:00.664Z,17.60
2019-04-23T17:48:01.205Z,17.40
2019-04-23T17:52:50.156Z,17.40
2019-04-23T17:55:15.410Z,17.30
2019-04-23T17:57:50.193Z,17.30
2019-04-23T18:07:50.445Z,17.20
2019-04-23T18:12:53.227Z,17.10
2019-04-23T18:15:16.062Z,17.10
2019-04-23T18:20:37.748Z,17.10
2019-04-23T18:23:11.511Z,17.00
2019-04-23T18:25:43.305Z,17.00
2019-04-23T18:28:08.591Z,17.00
2019-04-23T18:35:50.237Z,16.80
2019-04-23T18:38:25.999Z,16.80
2019-04-23T18:41:02.587Z,16.80
2019-04-23T18:43:30.804Z,16.80
2019-04-23T18:51:23.575Z,16.70
2019-04-23T18:53:39.605Z,16.70
2019-04-23T18:58:46.465Z,16.70
2019-04-23T19:01:23.192Z,16.70
2019-04-23T19:06:32.046Z,16.60
2019-04-23T19:09:16.180Z,16.60
2019-04-23T19:14:35.247Z,16.50
2019-04-23T19:17:08.995Z,16.60
2019-04-23T19:19:28.840Z,16.60
2019-04-23T19:24:27.611Z,16.50
2019-04-23T19:29:39.631Z,16.40
2019-04-23T19:39:32.109Z,16.40
2019-04-23T19:47:16.960Z,16.30
2019-04-23T19:49:32.688Z,16.30
2019-04-23T19:51:59.516Z,16.30
2019-04-23T19:57:09.330Z,16.20
2019-04-23T20:02:07.322Z,16.10
2019-04-23T20:12:06.043Z,16.00
2019-04-23T20:14:46.063Z,16.00
2019-04-23T20:22:21.852Z,15.90
2019-04-23T20:25:18.600Z,15.80
2019-04-23T20:27:22.986Z,15.80
2019-04-23T20:34:56.616Z,15.90
2019-04-23T20:37:29.395Z,15.80
2019-04-23T20:39:56.829Z,15.80
2019-04-23T20:42:27.649Z,15.80
2019-04-23T20:44:59.114Z,15.70
2019-04-23T20:52:13.824Z,15.70
2019-04-23T21:00:12.320Z,15.50
2019-04-23T21:03:18.184Z,15.50
2019-04-23T21:05:26.378Z,15.60
2019-04-23T21:07:57.499Z,15.60
2019-04-23T21:13:09.236Z,15.50
2019-04-23T21:15:27.990Z,15.50
2019-04-23T21:30:59.035Z,15.40
2019-04-23T21:33:12.056Z,15.40
2019-04-23T21:36:12.630Z,15.40
2019-04-23T21:41:45.166Z,15.40
2019-04-23T21:53:52.220Z,15.30
2019-04-23T21:56:21.010Z,15.30
2019-04-23T21:58:59.806Z,15.30
2019-04-23T22:04:09.751Z,15.30
2019-04-23T22:09:04.366Z,15.30
2019-04-23T22:11:49.483Z,15.20
2019-04-23T22:14:04.127Z,15.20
2019-04-23T22:16:35.539Z,15.20
2019-04-23T22:19:15.102Z,15.20
2019-04-23T22:24:02.492Z,15.20
2019-04-23T22:29:14.253Z,15.20
2019-04-23T22:31:37.818Z,15.10
2019-04-23T22:36:43.674Z,15.10
2019-04-23T22:39:03.190Z,15.00
2019-04-23T22:46:48.373Z,15.00
2019-04-23T22:51:52.723Z,15.00
2019-04-23T22:54:11.718Z,14.90
2019-04-23T22:56:43.995Z,14.90
2019-04-23T23:01:50.494Z,14.90
2019-04-23T23:04:23.685Z,14.90
2019-04-23T23:06:59.397Z,14.80
2019-04-23T23:09:37.951Z,14.80
2019-04-23T23:11:49.619Z,14.80
2019-04-23T23:14:23.236Z,14.90
2019-04-23T23:21:59.560Z,14.70
2019-04-23T23:24:16.897Z,14.70
2019-04-23T23:26:54.085Z,14.70
2019-04-23T23:29:23.344Z,14.70
2019-04-23T23:34:25.606Z,14.70
2019-04-23T23:36:54.870Z,14.60
2019-04-23T23:39:22.631Z,14.60
2019-04-23T23:44:33.518Z,14.50
2019-04-23T23:49:29.756Z,14.50
2019-04-23T23:51:57.345Z,14.40
2019-04-23T23:54:17.672Z,14.40
2019-04-23T23:57:12.118Z,14.40
2019-04-23T23:59:49.340Z,14.40
